Portada
METAR-TAF:

METAR-TAF

Aeroports :

Aeroport de Dakhla

Dakhla, Marroc

latitud: 23-43-05N, longitud: 015-55-55W, altitud: 11 m

METAR: manca

Hora: 17:05 (16:05 UTC)

Pronòstic

L'informe es va fer fa 5 hores i 5 minuts, a les 11:00 UTC
Pronòstic vàlid del 13 a les 12 UTC al 14 a les 18 UTC
Vent 20 kt del Est
Visibilitat 10 km o més
sense núvols per sota de 1500 mi sense presència de cumulonimbus.

TAF: GMMH 131100Z 1312/1418 08020KT CAVOK

Observacions i pronòstics meteorològics de més de 4000 aeroports (METAR i TAF).

Les estacions disponibles són els punts grocs i vermells al mapa.

Posi el ratolí al punt desitjat per veure el nom de l'estació.

Feu clic per veure les observacions i els pronòstics meteorològics.

Per canviar el mapa: feu clic els botons verds amb una creu de color negre per apropar; al botó verd amb un guió per allunyar la imatge; o en les fletxes verdes per a mapes adjacents.


METAR-TAF: